sensor_id;sensor_type;location;lat;lon;timestamp;P1;durP1;ratioP1;P2;durP2;ratioP2
13032;SDS011;6583;42.632;23.298;2022-07-25T00:00:07;10.15;;;9.10;;
13032;SDS011;6583;42.632;23.298;2022-07-25T00:02:36;9.80;;;8.90;;
13032;SDS011;6583;42.632;23.298;2022-07-25T00:05:03;10.45;;;9.52;;
13032;SDS011;6583;42.632;23.298;2022-07-25T00:07:30;10.13;;;9.23;;
13032;SDS011;6583;42.632;23.298;2022-07-25T00:09:57;10.38;;;9.38;;
13032;SDS011;6583;42.632;23.298;2022-07-25T00:12:24;10.02;;;9.13;;
13032;SDS011;6583;42.632;23.298;2022-07-25T00:14:50;10.18;;;9.18;;
13032;SDS011;6583;42.632;23.298;2022-07-25T00:17:17;9.70;;;8.90;;
13032;SDS011;6583;42.632;23.298;2022-07-25T00:19:45;10.10;;;9.10;;
13032;SDS011;6583;42.632;23.298;2022-07-25T00:22:12;9.50;;;8.70;;
13032;SDS011;6583;42.632;23.298;2022-07-25T00:24:39;10.13;;;9.10;;
13032;SDS011;6583;42.632;23.298;2022-07-25T00:27:05;9.90;;;8.90;;
13032;SDS011;6583;42.632;23.298;2022-07-25T00:29:32;9.57;;;8.52;;
13032;SDS011;6583;42.632;23.298;2022-07-25T00:31:59;10.40;;;9.40;;
13032;SDS011;6583;42.632;23.298;2022-07-25T00:34:25;9.60;;;8.70;;
13032;SDS011;6583;42.632;23.298;2022-07-25T00:36:53;9.98;;;9.07;;
13032;SDS011;6583;42.632;23.298;2022-07-25T00:39:20;10.02;;;9.13;;
13032;SDS011;6583;42.632;23.298;2022-07-25T00:41:47;10.00;;;9.10;;
13032;SDS011;6583;42.632;23.298;2022-07-25T00:44:20;10.13;;;9.20;;
13032;SDS011;6583;42.632;23.298;2022-07-25T00:46:48;11.02;;;9.90;;
13032;SDS011;6583;42.632;23.298;2022-07-25T00:49:15;10.13;;;9.23;;
13032;SDS011;6583;42.632;23.298;2022-07-25T00:51:42;10.13;;;9.27;;
13032;SDS011;6583;42.632;23.298;2022-07-25T00:54:11;10.45;;;9.55;;
13032;SDS011;6583;42.632;23.298;2022-07-25T00:56:38;10.57;;;9.48;;
13032;SDS011;6583;42.632;23.298;2022-07-25T00:59:05;9.88;;;8.98;;
13032;SDS011;6583;42.632;23.298;2022-07-25T01:01:31;10.10;;;9.05;;
13032;SDS011;6583;42.632;23.298;2022-07-25T01:03:58;10.50;;;9.43;;
13032;SDS011;6583;42.632;23.298;2022-07-25T01:06:25;10.35;;;9.32;;
13032;SDS011;6583;42.632;23.298;2022-07-25T01:08:52;10.20;;;9.20;;
13032;SDS011;6583;42.632;23.298;2022-07-25T01:11:21;10.45;;;9.35;;
13032;SDS011;6583;42.632;23.298;2022-07-25T01:13:48;10.38;;;9.45;;
13032;SDS011;6583;42.632;23.298;2022-07-25T01:16:15;10.68;;;9.68;;
13032;SDS011;6583;42.632;23.298;2022-07-25T01:18:42;10.60;;;9.70;;
13032;SDS011;6583;42.632;23.298;2022-07-25T01:21:10;11.82;;;9.98;;
13032;SDS011;6583;42.632;23.298;2022-07-25T01:23:38;9.95;;;8.95;;
13032;SDS011;6583;42.632;23.298;2022-07-25T01:26:05;10.63;;;9.52;;
13032;SDS011;6583;42.632;23.298;2022-07-25T01:28:32;10.35;;;9.32;;
13032;SDS011;6583;42.632;23.298;2022-07-25T01:30:58;10.23;;;9.25;;
13032;SDS011;6583;42.632;23.298;2022-07-25T01:33:25;11.05;;;10.05;;
13032;SDS011;6583;42.632;23.298;2022-07-25T01:35:52;11.32;;;10.32;;
13032;SDS011;6583;42.632;23.298;2022-07-25T01:38:20;10.93;;;9.90;;
13032;SDS011;6583;42.632;23.298;2022-07-25T01:40:46;10.43;;;9.43;;
13032;SDS011;6583;42.632;23.298;2022-07-25T01:43:13;10.35;;;9.45;;
13032;SDS011;6583;42.632;23.298;2022-07-25T01:45:40;10.88;;;9.88;;
13032;SDS011;6583;42.632;23.298;2022-07-25T01:48:06;10.00;;;9.10;;
13032;SDS011;6583;42.632;23.298;2022-07-25T01:50:33;10.85;;;9.75;;
13032;SDS011;6583;42.632;23.298;2022-07-25T01:53:00;10.30;;;9.30;;
13032;SDS011;6583;42.632;23.298;2022-07-25T01:55:28;10.13;;;9.13;;
13032;SDS011;6583;42.632;23.298;2022-07-25T01:57:55;10.82;;;9.73;;
13032;SDS011;6583;42.632;23.298;2022-07-25T02:00:21;9.75;;;8.75;;
13032;SDS011;6583;42.632;23.298;2022-07-25T02:02:48;8.98;;;8.07;;
13032;SDS011;6583;42.632;23.298;2022-07-25T02:05:35;8.95;;;8.05;;
13032;SDS011;6583;42.632;23.298;2022-07-25T02:08:02;9.50;;;8.50;;
13032;SDS011;6583;42.632;23.298;2022-07-25T02:10:30;9.63;;;8.68;;
13032;SDS011;6583;42.632;23.298;2022-07-25T02:12:57;9.57;;;8.60;;
13032;SDS011;6583;42.632;23.298;2022-07-25T02:15:25;9.80;;;8.90;;
13032;SDS011;6583;42.632;23.298;2022-07-25T02:17:52;9.60;;;8.60;;
13032;SDS011;6583;42.632;23.298;2022-07-25T02:20:19;9.02;;;8.13;;
13032;SDS011;6583;42.632;23.298;2022-07-25T02:22:46;8.90;;;8.07;;
13032;SDS011;6583;42.632;23.298;2022-07-25T02:25:12;9.45;;;8.55;;
13032;SDS011;6583;42.632;23.298;2022-07-25T02:27:40;8.95;;;8.15;;
13032;SDS011;6583;42.632;23.298;2022-07-25T02:30:07;9.48;;;8.48;;
13032;SDS011;6583;42.632;23.298;2022-07-25T02:32:34;9.40;;;8.50;;
13032;SDS011;6583;42.632;23.298;2022-07-25T02:35:01;8.98;;;8.07;;
13032;SDS011;6583;42.632;23.298;2022-07-25T02:37:28;9.20;;;8.40;;
13032;SDS011;6583;42.632;23.298;2022-07-25T02:39:55;9.77;;;8.15;;
13032;SDS011;6583;42.632;23.298;2022-07-25T02:42:21;9.15;;;8.35;;
13032;SDS011;6583;42.632;23.298;2022-07-25T02:44:49;9.18;;;8.38;;
13032;SDS011;6583;42.632;23.298;2022-07-25T02:47:16;8.75;;;7.95;;
13032;SDS011;6583;42.632;23.298;2022-07-25T02:49:43;9.15;;;8.25;;
13032;SDS011;6583;42.632;23.298;2022-07-25T02:52:09;8.95;;;8.15;;
13032;SDS011;6583;42.632;23.298;2022-07-25T02:54:36;9.10;;;8.15;;
13032;SDS011;6583;42.632;23.298;2022-07-25T02:57:03;9.10;;;8.25;;
13032;SDS011;6583;42.632;23.298;2022-07-25T02:59:29;9.75;;;8.85;;
13032;SDS011;6583;42.632;23.298;2022-07-25T03:01:57;9.27;;;8.38;;
13032;SDS011;6583;42.632;23.298;2022-07-25T03:04:24;9.45;;;8.55;;
13032;SDS011;6583;42.632;23.298;2022-07-25T03:06:51;8.98;;;8.18;;
13032;SDS011;6583;42.632;23.298;2022-07-25T03:09:17;9.60;;;8.70;;
13032;SDS011;6583;42.632;23.298;2022-07-25T03:11:44;9.13;;;8.32;;
13032;SDS011;6583;42.632;23.298;2022-07-25T03:14:11;9.52;;;8.63;;
13032;SDS011;6583;42.632;23.298;2022-07-25T03:16:37;9.10;;;8.23;;
13032;SDS011;6583;42.632;23.298;2022-07-25T03:19:06;9.00;;;8.10;;
13032;SDS011;6583;42.632;23.298;2022-07-25T03:21:34;9.35;;;8.48;;
13032;SDS011;6583;42.632;23.298;2022-07-25T03:24:01;9.20;;;8.30;;
13032;SDS011;6583;42.632;23.298;2022-07-25T03:26:28;9.52;;;8.65;;
13032;SDS011;6583;42.632;23.298;2022-07-25T03:28:55;8.88;;;8.07;;
13032;SDS011;6583;42.632;23.298;2022-07-25T03:31:22;9.35;;;8.55;;
13032;SDS011;6583;42.632;23.298;2022-07-25T03:33:48;9.80;;;8.95;;
13032;SDS011;6583;42.632;23.298;2022-07-25T03:36:16;9.20;;;8.38;;
13032;SDS011;6583;42.632;23.298;2022-07-25T03:38:43;9.07;;;8.27;;
13032;SDS011;6583;42.632;23.298;2022-07-25T03:41:10;9.18;;;8.38;;
13032;SDS011;6583;42.632;23.298;2022-07-25T03:43:37;9.20;;;8.40;;
13032;SDS011;6583;42.632;23.298;2022-07-25T03:46:04;8.88;;;8.07;;
13032;SDS011;6583;42.632;23.298;2022-07-25T03:48:30;9.10;;;8.30;;
13032;SDS011;6583;42.632;23.298;2022-07-25T03:50:57;9.77;;;8.68;;
13032;SDS011;6583;42.632;23.298;2022-07-25T03:53:25;8.93;;;8.13;;
13032;SDS011;6583;42.632;23.298;2022-07-25T03:55:52;8.80;;;8.00;;
13032;SDS011;6583;42.632;23.298;2022-07-25T03:58:18;8.65;;;7.85;;
13032;SDS011;6583;42.632;23.298;2022-07-25T04:00:45;9.02;;;8.18;;
13032;SDS011;6583;42.632;23.298;2022-07-25T04:03:13;8.93;;;8.05;;
13032;SDS011;6583;42.632;23.298;2022-07-25T04:05:40;9.23;;;8.38;;
13032;SDS011;6583;42.632;23.298;2022-07-25T04:08:07;8.80;;;8.00;;
13032;SDS011;6583;42.632;23.298;2022-07-25T04:10:35;9.98;;;8.48;;
13032;SDS011;6583;42.632;23.298;2022-07-25T04:13:02;9.43;;;8.02;;
13032;SDS011;6583;42.632;23.298;2022-07-25T04:15:28;8.52;;;7.78;;
13032;SDS011;6583;42.632;23.298;2022-07-25T04:17:55;9.07;;;8.27;;
13032;SDS011;6583;42.632;23.298;2022-07-25T04:20:21;8.80;;;7.90;;
13032;SDS011;6583;42.632;23.298;2022-07-25T04:22:48;8.68;;;7.93;;
13032;SDS011;6583;42.632;23.298;2022-07-25T04:25:15;8.40;;;7.60;;
13032;SDS011;6583;42.632;23.298;2022-07-25T04:27:43;8.68;;;7.88;;
13032;SDS011;6583;42.632;23.298;2022-07-25T04:30:10;9.00;;;8.10;;
13032;SDS011;6583;42.632;23.298;2022-07-25T04:32:38;9.07;;;7.70;;
13032;SDS011;6583;42.632;23.298;2022-07-25T04:35:05;9.15;;;8.18;;
13032;SDS011;6583;42.632;23.298;2022-07-25T04:37:32;8.50;;;7.70;;
13032;SDS011;6583;42.632;23.298;2022-07-25T04:40:00;8.77;;;7.97;;
13032;SDS011;6583;42.632;23.298;2022-07-25T04:42:27;8.77;;;7.80;;
13032;SDS011;6583;42.632;23.298;2022-07-25T04:44:55;9.07;;;7.93;;
13032;SDS011;6583;42.632;23.298;2022-07-25T04:47:21;9.73;;;8.73;;
13032;SDS011;6583;42.632;23.298;2022-07-25T04:49:48;9.38;;;7.75;;
13032;SDS011;6583;42.632;23.298;2022-07-25T04:52:14;8.70;;;7.90;;
13032;SDS011;6583;42.632;23.298;2022-07-25T04:54:41;8.25;;;7.45;;
13032;SDS011;6583;42.632;23.298;2022-07-25T04:57:08;8.45;;;7.65;;
13032;SDS011;6583;42.632;23.298;2022-07-25T04:59:34;9.02;;;7.20;;
13032;SDS011;6583;42.632;23.298;2022-07-25T05:02:02;8.60;;;7.90;;
13032;SDS011;6583;42.632;23.298;2022-07-25T05:04:29;8.10;;;7.40;;
13032;SDS011;6583;42.632;23.298;2022-07-25T05:06:56;7.80;;;7.07;;
13032;SDS011;6583;42.632;23.298;2022-07-25T05:09:23;7.97;;;7.28;;
13032;SDS011;6583;42.632;23.298;2022-07-25T05:11:50;8.07;;;7.38;;
13032;SDS011;6583;42.632;23.298;2022-07-25T05:14:16;8.35;;;7.55;;
13032;SDS011;6583;42.632;23.298;2022-07-25T05:16:43;8.55;;;7.65;;
13032;SDS011;6583;42.632;23.298;2022-07-25T05:19:11;8.27;;;7.57;;
13032;SDS011;6583;42.632;23.298;2022-07-25T05:21:38;8.73;;;7.47;;
13032;SDS011;6583;42.632;23.298;2022-07-25T05:24:04;10.98;;;7.65;;
13032;SDS011;6583;42.632;23.298;2022-07-25T05:26:32;8.00;;;7.30;;
13032;SDS011;6583;42.632;23.298;2022-07-25T05:28:58;8.45;;;7.68;;
13032;SDS011;6583;42.632;23.298;2022-07-25T05:31:25;8.27;;;7.57;;
13032;SDS011;6583;42.632;23.298;2022-07-25T05:33:51;7.80;;;7.07;;
13032;SDS011;6583;42.632;23.298;2022-07-25T05:36:19;8.70;;;7.90;;
13032;SDS011;6583;42.632;23.298;2022-07-25T05:38:46;8.55;;;7.75;;
13032;SDS011;6583;42.632;23.298;2022-07-25T05:41:13;8.60;;;7.80;;
13032;SDS011;6583;42.632;23.298;2022-07-25T05:43:40;8.75;;;7.47;;
13032;SDS011;6583;42.632;23.298;2022-07-25T05:46:10;8.55;;;7.75;;
13032;SDS011;6583;42.632;23.298;2022-07-25T05:48:37;9.27;;;8.48;;
13032;SDS011;6583;42.632;23.298;2022-07-25T05:51:03;8.68;;;7.85;;
13032;SDS011;6583;42.632;23.298;2022-07-25T05:53:32;9.90;;;8.57;;
13032;SDS011;6583;42.632;23.298;2022-07-25T05:55:58;9.38;;;8.52;;
13032;SDS011;6583;42.632;23.298;2022-07-25T05:58:25;8.70;;;7.90;;
13032;SDS011;6583;42.632;23.298;2022-07-25T06:00:52;8.30;;;7.60;;
13032;SDS011;6583;42.632;23.298;2022-07-25T06:03:19;9.05;;;8.15;;
13032;SDS011;6583;42.632;23.298;2022-07-25T06:05:46;9.10;;;8.30;;
13032;SDS011;6583;42.632;23.298;2022-07-25T06:08:13;8.95;;;8.05;;
13032;SDS011;6583;42.632;23.298;2022-07-25T06:10:41;9.25;;;8.45;;
13032;SDS011;6583;42.632;23.298;2022-07-25T06:13:08;8.80;;;8.00;;
13032;SDS011;6583;42.632;23.298;2022-07-25T06:15:34;8.93;;;8.07;;
13032;SDS011;6583;42.632;23.298;2022-07-25T06:18:01;8.75;;;7.95;;
13032;SDS011;6583;42.632;23.298;2022-07-25T06:20:28;8.57;;;7.82;;
13032;SDS011;6583;42.632;23.298;2022-07-25T06:22:54;8.63;;;7.82;;
13032;SDS011;6583;42.632;23.298;2022-07-25T06:25:21;9.18;;;8.27;;
13032;SDS011;6583;42.632;23.298;2022-07-25T06:27:49;9.57;;;8.50;;
13032;SDS011;6583;42.632;23.298;2022-07-25T06:30:16;9.30;;;8.48;;
13032;SDS011;6583;42.632;23.298;2022-07-25T06:32:43;8.93;;;8.13;;
13032;SDS011;6583;42.632;23.298;2022-07-25T06:35:09;9.32;;;8.50;;
13032;SDS011;6583;42.632;23.298;2022-07-25T06:37:36;8.55;;;7.75;;
13032;SDS011;6583;42.632;23.298;2022-07-25T06:40:04;8.93;;;8.13;;
13032;SDS011;6583;42.632;23.298;2022-07-25T06:42:32;8.85;;;8.05;;
13032;SDS011;6583;42.632;23.298;2022-07-25T06:45:04;9.20;;;8.25;;
13032;SDS011;6583;42.632;23.298;2022-07-25T06:47:31;9.52;;;8.35;;
13032;SDS011;6583;42.632;23.298;2022-07-25T06:49:58;8.55;;;7.85;;
13032;SDS011;6583;42.632;23.298;2022-07-25T06:52:24;9.13;;;8.32;;
13032;SDS011;6583;42.632;23.298;2022-07-25T06:54:51;8.60;;;7.70;;
13032;SDS011;6583;42.632;23.298;2022-07-25T06:57:18;9.07;;;8.27;;
13032;SDS011;6583;42.632;23.298;2022-07-25T06:59:44;8.10;;;7.50;;
13032;SDS011;6583;42.632;23.298;2022-07-25T07:02:12;8.25;;;7.65;;
13032;SDS011;6583;42.632;23.298;2022-07-25T07:04:40;8.63;;;7.88;;
13032;SDS011;6583;42.632;23.298;2022-07-25T07:07:07;8.80;;;8.00;;
13032;SDS011;6583;42.632;23.298;2022-07-25T07:09:33;8.20;;;7.50;;
13032;SDS011;6583;42.632;23.298;2022-07-25T07:12:00;8.13;;;7.25;;
13032;SDS011;6583;42.632;23.298;2022-07-25T07:14:26;9.23;;;8.25;;
13032;SDS011;6583;42.632;23.298;2022-07-25T07:16:53;8.60;;;7.80;;
13032;SDS011;6583;42.632;23.298;2022-07-25T07:19:21;8.45;;;7.75;;
13032;SDS011;6583;42.632;23.298;2022-07-25T07:21:48;8.00;;;7.25;;
13032;SDS011;6583;42.632;23.298;2022-07-25T07:24:15;9.35;;;8.48;;
13032;SDS011;6583;42.632;23.298;2022-07-25T07:26:42;8.45;;;7.75;;
13032;SDS011;6583;42.632;23.298;2022-07-25T07:29:09;8.73;;;8.02;;
13032;SDS011;6583;42.632;23.298;2022-07-25T07:31:35;8.95;;;8.07;;
13032;SDS011;6583;42.632;23.298;2022-07-25T07:34:02;9.45;;;8.55;;
13032;SDS011;6583;42.632;23.298;2022-07-25T07:36:30;8.48;;;7.68;;
13032;SDS011;6583;42.632;23.298;2022-07-25T07:38:57;8.38;;;7.63;;
13032;SDS011;6583;42.632;23.298;2022-07-25T07:41:23;7.90;;;7.30;;
13032;SDS011;6583;42.632;23.298;2022-07-25T07:43:50;8.70;;;7.78;;
13032;SDS011;6583;42.632;23.298;2022-07-25T07:46:17;8.27;;;7.47;;
13032;SDS011;6583;42.632;23.298;2022-07-25T07:48:43;8.57;;;7.78;;
13032;SDS011;6583;42.632;23.298;2022-07-25T07:51:11;8.25;;;7.55;;
13032;SDS011;6583;42.632;23.298;2022-07-25T07:53:38;8.88;;;7.97;;
13032;SDS011;6583;42.632;23.298;2022-07-25T07:56:23;9.05;;;8.27;;
13032;SDS011;6583;42.632;23.298;2022-07-25T07:58:49;8.02;;;7.32;;
13032;SDS011;6583;42.632;23.298;2022-07-25T08:01:16;8.52;;;7.82;;
13032;SDS011;6583;42.632;23.298;2022-07-25T08:03:43;8.80;;;8.10;;
13032;SDS011;6583;42.632;23.298;2022-07-25T08:06:09;7.53;;;6.82;;
13032;SDS011;6583;42.632;23.298;2022-07-25T08:08:36;7.80;;;7.13;;
13032;SDS011;6583;42.632;23.298;2022-07-25T08:11:04;8.52;;;7.78;;
13032;SDS011;6583;42.632;23.298;2022-07-25T08:13:31;8.05;;;7.45;;
13032;SDS011;6583;42.632;23.298;2022-07-25T08:15:59;8.43;;;7.72;;
13032;SDS011;6583;42.632;23.298;2022-07-25T08:18:27;8.05;;;7.35;;
13032;SDS011;6583;42.632;23.298;2022-07-25T08:20:55;8.43;;;7.72;;
13032;SDS011;6583;42.632;23.298;2022-07-25T08:23:22;7.90;;;7.22;;
13032;SDS011;6583;42.632;23.298;2022-07-25T08:25:52;8.35;;;7.65;;
13032;SDS011;6583;42.632;23.298;2022-07-25T08:28:20;8.40;;;7.70;;
13032;SDS011;6583;42.632;23.298;2022-07-25T08:30:46;8.77;;;7.97;;
13032;SDS011;6583;42.632;23.298;2022-07-25T08:33:13;7.45;;;6.85;;
13032;SDS011;6583;42.632;23.298;2022-07-25T08:35:44;8.43;;;7.63;;
13032;SDS011;6583;42.632;23.298;2022-07-25T08:38:11;8.32;;;7.57;;
13032;SDS011;6583;42.632;23.298;2022-07-25T08:40:38;7.90;;;7.20;;
13032;SDS011;6583;42.632;23.298;2022-07-25T08:43:05;8.23;;;7.30;;
13032;SDS011;6583;42.632;23.298;2022-07-25T08:45:38;7.82;;;7.22;;
13032;SDS011;6583;42.632;23.298;2022-07-25T08:48:09;7.38;;;6.78;;
13032;SDS011;6583;42.632;23.298;2022-07-25T08:50:36;8.13;;;7.43;;
13032;SDS011;6583;42.632;23.298;2022-07-25T08:53:04;9.35;;;7.45;;
13032;SDS011;6583;42.632;23.298;2022-07-25T08:55:31;7.82;;;7.20;;
13032;SDS011;6583;42.632;23.298;2022-07-25T08:57:57;7.32;;;6.72;;
13032;SDS011;6583;42.632;23.298;2022-07-25T09:00:25;8.35;;;7.55;;
13032;SDS011;6583;42.632;23.298;2022-07-25T09:02:55;7.70;;;7.10;;
13032;SDS011;6583;42.632;23.298;2022-07-25T09:05:24;8.52;;;7.82;;
13032;SDS011;6583;42.632;23.298;2022-07-25T09:07:51;7.90;;;7.10;;
13032;SDS011;6583;42.632;23.298;2022-07-25T09:10:19;8.38;;;7.60;;
13032;SDS011;6583;42.632;23.298;2022-07-25T09:12:50;8.13;;;7.38;;
13032;SDS011;6583;42.632;23.298;2022-07-25T09:15:22;8.55;;;7.75;;
13032;SDS011;6583;42.632;23.298;2022-07-25T09:17:50;7.72;;;7.07;;
13032;SDS011;6583;42.632;23.298;2022-07-25T09:20:19;8.18;;;7.38;;
13032;SDS011;6583;42.632;23.298;2022-07-25T09:22:46;7.93;;;7.28;;
13032;SDS011;6583;42.632;23.298;2022-07-25T09:25:20;7.55;;;6.95;;
13032;SDS011;6583;42.632;23.298;2022-07-25T09:27:48;7.78;;;7.05;;
13032;SDS011;6583;42.632;23.298;2022-07-25T09:30:15;7.78;;;7.07;;
13032;SDS011;6583;42.632;23.298;2022-07-25T09:32:42;8.13;;;7.38;;
13032;SDS011;6583;42.632;23.298;2022-07-25T09:35:09;8.25;;;7.55;;
13032;SDS011;6583;42.632;23.298;2022-07-25T09:37:38;8.35;;;7.55;;
13032;SDS011;6583;42.632;23.298;2022-07-25T09:40:12;8.65;;;7.75;;
13032;SDS011;6583;42.632;23.298;2022-07-25T09:42:40;8.57;;;7.82;;
13032;SDS011;6583;42.632;23.298;2022-07-25T09:45:11;7.82;;;7.15;;
13032;SDS011;6583;42.632;23.298;2022-07-25T09:47:48;8.23;;;7.53;;
13032;SDS011;6583;42.632;23.298;2022-07-25T09:50:18;8.38;;;7.53;;
13032;SDS011;6583;42.632;23.298;2022-07-25T09:52:48;8.10;;;7.40;;
13032;SDS011;6583;42.632;23.298;2022-07-25T09:55:16;8.48;;;7.70;;
13032;SDS011;6583;42.632;23.298;2022-07-25T09:57:43;8.30;;;7.60;;
13032;SDS011;6583;42.632;23.298;2022-07-25T10:00:11;8.02;;;7.32;;
13032;SDS011;6583;42.632;23.298;2022-07-25T10:02:40;8.43;;;7.68;;
13032;SDS011;6583;42.632;23.298;2022-07-25T10:05:14;8.02;;;7.35;;
13032;SDS011;6583;42.632;23.298;2022-07-25T10:07:45;7.95;;;7.35;;
13032;SDS011;6583;42.632;23.298;2022-07-25T10:10:19;7.70;;;7.10;;
13032;SDS011;6583;42.632;23.298;2022-07-25T10:13:02;7.95;;;7.22;;
13032;SDS011;6583;42.632;23.298;2022-07-25T10:15:47;8.25;;;7.55;;
13032;SDS011;6583;42.632;23.298;2022-07-25T10:18:15;8.32;;;7.63;;
13032;SDS011;6583;42.632;23.298;2022-07-25T10:20:43;8.43;;;7.68;;
13032;SDS011;6583;42.632;23.298;2022-07-25T10:23:21;8.07;;;7.35;;
13032;SDS011;6583;42.632;23.298;2022-07-25T10:25:59;8.20;;;7.50;;
13032;SDS011;6583;42.632;23.298;2022-07-25T10:28:34;8.20;;;7.50;;
13032;SDS011;6583;42.632;23.298;2022-07-25T10:31:12;7.63;;;7.03;;
13032;SDS011;6583;42.632;23.298;2022-07-25T10:33:41;8.35;;;7.63;;
13032;SDS011;6583;42.632;23.298;2022-07-25T10:36:08;8.50;;;7.63;;
13032;SDS011;6583;42.632;23.298;2022-07-25T10:38:38;7.60;;;6.90;;
13032;SDS011;6583;42.632;23.298;2022-07-25T10:41:06;7.88;;;7.15;;
13032;SDS011;6583;42.632;23.298;2022-07-25T10:43:37;8.00;;;7.40;;
13032;SDS011;6583;42.632;23.298;2022-07-25T10:46:09;8.10;;;7.40;;
13032;SDS011;6583;42.632;23.298;2022-07-25T10:48:38;8.18;;;7.47;;
13032;SDS011;6583;42.632;23.298;2022-07-25T10:51:05;8.00;;;7.20;;
13032;SDS011;6583;42.632;23.298;2022-07-25T10:53:34;7.47;;;6.85;;
13032;SDS011;6583;42.632;23.298;2022-07-25T10:56:04;7.93;;;7.22;;
13032;SDS011;6583;42.632;23.298;2022-07-25T10:58:42;7.72;;;7.03;;
13032;SDS011;6583;42.632;23.298;2022-07-25T11:01:10;7.97;;;7.28;;
13032;SDS011;6583;42.632;23.298;2022-07-25T11:03:39;7.60;;;7.00;;
13032;SDS011;6583;42.632;23.298;2022-07-25T11:06:09;7.70;;;7.00;;
13032;SDS011;6583;42.632;23.298;2022-07-25T11:08:36;7.78;;;7.07;;
13032;SDS011;6583;42.632;23.298;2022-07-25T11:11:04;7.85;;;7.18;;
13032;SDS011;6583;42.632;23.298;2022-07-25T11:13:35;7.85;;;7.18;;
13032;SDS011;6583;42.632;23.298;2022-07-25T11:16:02;7.35;;;6.72;;
13032;SDS011;6583;42.632;23.298;2022-07-25T11:18:30;7.63;;;6.93;;
13032;SDS011;6583;42.632;23.298;2022-07-25T11:20:58;7.63;;;7.00;;
13032;SDS011;6583;42.632;23.298;2022-07-25T11:23:26;7.65;;;6.97;;
13032;SDS011;6583;42.632;23.298;2022-07-25T11:26:02;7.47;;;6.82;;
13032;SDS011;6583;42.632;23.298;2022-07-25T11:28:38;7.32;;;6.60;;
13032;SDS011;6583;42.632;23.298;2022-07-25T11:31:08;7.80;;;7.10;;
13032;SDS011;6583;42.632;23.298;2022-07-25T11:33:36;7.82;;;6.90;;
13032;SDS011;6583;42.632;23.298;2022-07-25T11:36:04;6.80;;;6.20;;
13032;SDS011;6583;42.632;23.298;2022-07-25T11:38:31;7.40;;;6.80;;
13032;SDS011;6583;42.632;23.298;2022-07-25T11:40:59;7.45;;;6.75;;
13032;SDS011;6583;42.632;23.298;2022-07-25T11:43:27;7.38;;;6.75;;
13032;SDS011;6583;42.632;23.298;2022-07-25T11:45:57;7.25;;;6.65;;
13032;SDS011;6583;42.632;23.298;2022-07-25T11:48:29;7.35;;;6.68;;
13032;SDS011;6583;42.632;23.298;2022-07-25T11:51:06;7.15;;;6.55;;
13032;SDS011;6583;42.632;23.298;2022-07-25T11:53:42;7.05;;;6.43;;
13032;SDS011;6583;42.632;23.298;2022-07-25T11:56:13;7.95;;;6.63;;
13032;SDS011;6583;42.632;23.298;2022-07-25T11:58:43;7.22;;;6.63;;
13032;SDS011;6583;42.632;23.298;2022-07-25T12:01:22;7.03;;;6.53;;
13032;SDS011;6583;42.632;23.298;2022-07-25T12:03:49;7.00;;;6.40;;
13032;SDS011;6583;42.632;23.298;2022-07-25T12:06:16;6.93;;;6.32;;
13032;SDS011;6583;42.632;23.298;2022-07-25T12:08:43;6.80;;;6.30;;
13032;SDS011;6583;42.632;23.298;2022-07-25T12:11:16;7.28;;;6.65;;
13032;SDS011;6583;42.632;23.298;2022-07-25T12:13:46;7.78;;;6.97;;
13032;SDS011;6583;42.632;23.298;2022-07-25T12:16:13;7.60;;;6.85;;
13032;SDS011;6583;42.632;23.298;2022-07-25T12:18:40;7.38;;;6.78;;
13032;SDS011;6583;42.632;23.298;2022-07-25T12:21:07;7.45;;;6.75;;
13032;SDS011;6583;42.632;23.298;2022-07-25T12:23:34;7.13;;;6.53;;
13032;SDS011;6583;42.632;23.298;2022-07-25T12:26:02;7.30;;;6.60;;
13032;SDS011;6583;42.632;23.298;2022-07-25T12:28:28;8.13;;;7.38;;
13032;SDS011;6583;42.632;23.298;2022-07-25T12:30:56;7.93;;;7.25;;
13032;SDS011;6583;42.632;23.298;2022-07-25T12:33:23;8.25;;;6.82;;
13032;SDS011;6583;42.632;23.298;2022-07-25T12:35:50;8.13;;;7.32;;
13032;SDS011;6583;42.632;23.298;2022-07-25T12:38:16;8.13;;;7.15;;
13032;SDS011;6583;42.632;23.298;2022-07-25T12:40:43;7.68;;;7.07;;
13032;SDS011;6583;42.632;23.298;2022-07-25T12:43:10;7.07;;;6.38;;
13032;SDS011;6583;42.632;23.298;2022-07-25T12:45:37;7.35;;;6.65;;
13032;SDS011;6583;42.632;23.298;2022-07-25T12:48:05;7.80;;;7.20;;
13032;SDS011;6583;42.632;23.298;2022-07-25T12:50:32;7.43;;;6.72;;
13032;SDS011;6583;42.632;23.298;2022-07-25T12:52:59;7.13;;;6.53;;
13032;SDS011;6583;42.632;23.298;2022-07-25T12:55:25;7.43;;;6.82;;
13032;SDS011;6583;42.632;23.298;2022-07-25T12:57:52;7.10;;;6.50;;
13032;SDS011;6583;42.632;23.298;2022-07-25T13:00:20;7.28;;;6.68;;
13032;SDS011;6583;42.632;23.298;2022-07-25T13:02:49;6.85;;;6.25;;
13032;SDS011;6583;42.632;23.298;2022-07-25T13:05:18;7.05;;;6.45;;
13032;SDS011;6583;42.632;23.298;2022-07-25T13:07:45;7.60;;;7.00;;
13032;SDS011;6583;42.632;23.298;2022-07-25T13:10:13;7.55;;;6.93;;
13032;SDS011;6583;42.632;23.298;2022-07-25T13:12:40;6.93;;;6.40;;
13032;SDS011;6583;42.632;23.298;2022-07-25T13:15:07;7.53;;;6.78;;
13032;SDS011;6583;42.632;23.298;2022-07-25T13:17:34;7.38;;;6.68;;
13032;SDS011;6583;42.632;23.298;2022-07-25T13:20:01;7.38;;;6.78;;
13032;SDS011;6583;42.632;23.298;2022-07-25T13:22:31;7.10;;;6.50;;
13032;SDS011;6583;42.632;23.298;2022-07-25T13:24:58;7.50;;;6.90;;
13032;SDS011;6583;42.632;23.298;2022-07-25T13:27:25;7.93;;;7.22;;
13032;SDS011;6583;42.632;23.298;2022-07-25T13:29:51;6.82;;;6.22;;
13032;SDS011;6583;42.632;23.298;2022-07-25T13:32:19;8.70;;;7.40;;
13032;SDS011;6583;42.632;23.298;2022-07-25T13:34:46;7.45;;;6.85;;
13032;SDS011;6583;42.632;23.298;2022-07-25T13:37:12;7.60;;;7.00;;
13032;SDS011;6583;42.632;23.298;2022-07-25T13:39:40;7.13;;;6.32;;
13032;SDS011;6583;42.632;23.298;2022-07-25T13:42:07;7.45;;;6.78;;
13032;SDS011;6583;42.632;23.298;2022-07-25T13:44:34;7.85;;;7.07;;
13032;SDS011;6583;42.632;23.298;2022-07-25T13:47:01;7.53;;;6.82;;
13032;SDS011;6583;42.632;23.298;2022-07-25T13:49:27;7.88;;;7.18;;
13032;SDS011;6583;42.632;23.298;2022-07-25T13:51:55;7.80;;;7.20;;
13032;SDS011;6583;42.632;23.298;2022-07-25T13:54:22;7.78;;;7.00;;
13032;SDS011;6583;42.632;23.298;2022-07-25T13:56:50;7.40;;;6.80;;
13032;SDS011;6583;42.632;23.298;2022-07-25T13:59:17;7.18;;;6.68;;
13032;SDS011;6583;42.632;23.298;2022-07-25T14:01:43;6.82;;;6.22;;
13032;SDS011;6583;42.632;23.298;2022-07-25T14:04:11;7.38;;;6.68;;
13032;SDS011;6583;42.632;23.298;2022-07-25T14:06:38;7.97;;;7.28;;
13032;SDS011;6583;42.632;23.298;2022-07-25T14:09:04;7.55;;;6.88;;
13032;SDS011;6583;42.632;23.298;2022-07-25T14:11:31;7.93;;;6.53;;
13032;SDS011;6583;42.632;23.298;2022-07-25T14:13:59;7.75;;;7.05;;
13032;SDS011;6583;42.632;23.298;2022-07-25T14:16:26;7.72;;;7.00;;
13032;SDS011;6583;42.632;23.298;2022-07-25T14:18:53;7.32;;;6.72;;
13032;SDS011;6583;42.632;23.298;2022-07-25T14:21:20;7.60;;;7.00;;
13032;SDS011;6583;42.632;23.298;2022-07-25T14:23:46;7.60;;;6.93;;
13032;SDS011;6583;42.632;23.298;2022-07-25T14:26:13;6.85;;;6.25;;
13032;SDS011;6583;42.632;23.298;2022-07-25T14:28:40;7.40;;;6.80;;
13032;SDS011;6583;42.632;23.298;2022-07-25T14:31:08;7.32;;;6.55;;
13032;SDS011;6583;42.632;23.298;2022-07-25T14:33:35;7.10;;;6.50;;
13032;SDS011;6583;42.632;23.298;2022-07-25T14:36:04;7.10;;;6.55;;
13032;SDS011;6583;42.632;23.298;2022-07-25T14:38:31;7.13;;;6.47;;
13032;SDS011;6583;42.632;23.298;2022-07-25T14:40:58;7.55;;;6.85;;
13032;SDS011;6583;42.632;23.298;2022-07-25T14:43:25;7.03;;;6.43;;
13032;SDS011;6583;42.632;23.298;2022-07-25T14:45:51;7.10;;;6.50;;
13032;SDS011;6583;42.632;23.298;2022-07-25T14:48:19;7.07;;;6.47;;